createdAt,value
2019-05-11T03:59:38.656Z,4.87
2019-05-11T04:02:07.460Z,4.70
2019-05-11T04:04:36.236Z,4.68
2019-05-11T04:07:04.965Z,4.69
2019-05-11T04:09:33.699Z,4.77
2019-05-11T04:12:02.498Z,4.79
2019-05-11T04:14:31.234Z,4.89
2019-05-11T04:16:59.967Z,4.94
2019-05-11T04:19:28.802Z,5.03
2019-05-11T04:21:57.569Z,5.13
2019-05-11T04:24:26.924Z,5.12
2019-05-11T04:26:55.684Z,5.25
2019-05-11T04:29:24.452Z,5.29
2019-05-11T04:31:53.202Z,5.40
2019-05-11T04:34:21.952Z,5.52
2019-05-11T04:36:50.728Z,5.59
2019-05-11T04:39:19.461Z,5.71
2019-05-11T04:41:48.222Z,5.87
2019-05-11T04:44:17.018Z,6.02
2019-05-11T04:46:45.756Z,6.27
2019-05-11T04:49:14.490Z,6.44
2019-05-11T04:51:43.313Z,6.63
2019-05-11T04:54:12.065Z,6.67
2019-05-11T04:56:40.801Z,6.89
2019-05-11T04:59:09.668Z,7.06
2019-05-11T05:01:38.401Z,7.20
2019-05-11T05:04:14.080Z,7.20
2019-05-11T05:06:38.995Z,7.13
2019-05-11T05:09:08.057Z,7.20
2019-05-11T05:11:38.370Z,7.24
2019-05-11T05:14:10.159Z,7.38
2019-05-11T05:16:37.764Z,7.49
2019-05-11T05:19:06.641Z,7.43
2019-05-11T05:21:35.380Z,7.57
2019-05-11T05:24:04.117Z,7.74
2019-05-11T05:26:32.917Z,7.86
2019-05-11T05:29:01.739Z,8.04
2019-05-11T05:31:30.559Z,8.10
2019-05-11T05:34:01.326Z,8.38
2019-05-11T05:36:29.857Z,8.58
2019-05-11T05:38:58.586Z,8.71
2019-05-11T05:41:27.327Z,8.66
2019-05-11T05:43:56.215Z,8.82
2019-05-11T05:46:24.958Z,9.12
2019-05-11T05:48:53.786Z,9.14
2019-05-11T05:51:22.606Z,9.28
2019-05-11T05:53:51.817Z,9.69
2019-05-11T05:56:21.913Z,9.73
2019-05-11T05:58:52.808Z,9.87
2019-05-11T06:01:21.595Z,9.76
2019-05-11T06:03:50.390Z,9.87
2019-05-11T06:06:19.209Z,10.37
2019-05-11T06:08:50.640Z,10.85
2019-05-11T06:11:19.647Z,11.30
2019-05-11T06:13:48.461Z,11.70
2019-05-11T06:16:17.281Z,12.16
2019-05-11T06:18:46.098Z,11.97
2019-05-11T06:21:15.048Z,12.39
2019-05-11T06:23:43.935Z,12.36
2019-05-11T06:26:12.876Z,12.88
2019-05-11T06:28:41.701Z,13.27
2019-05-11T06:31:10.644Z,12.61
2019-05-11T06:33:39.461Z,13.37
2019-05-11T06:36:08.325Z,13.56
2019-05-11T06:38:37.522Z,13.91
2019-05-11T06:41:08.100Z,14.25
2019-05-11T06:43:36.838Z,14.62
2019-05-11T06:46:06.521Z,14.60
2019-05-11T06:48:35.889Z,14.71
2019-05-11T06:51:05.292Z,13.97
2019-05-11T06:53:34.188Z,13.76
2019-05-11T06:56:03.015Z,14.11
2019-05-11T06:58:31.799Z,13.78
2019-05-11T07:01:00.791Z,14.05
2019-05-11T07:03:29.698Z,14.19
2019-05-11T07:05:58.550Z,13.75
2019-05-11T07:08:27.411Z,13.46
2019-05-11T07:10:56.191Z,13.45
2019-05-11T07:13:24.986Z,13.69
2019-05-11T07:15:53.788Z,13.69
2019-05-11T07:18:22.663Z,13.67
2019-05-11T07:20:51.557Z,14.08
2019-05-11T07:23:20.415Z,13.92
2019-05-11T07:25:49.337Z,13.51
2019-05-11T07:28:18.147Z,13.49
2019-05-11T07:30:47.182Z,13.40
2019-05-11T07:33:18.169Z,13.07
2019-05-11T07:35:49.554Z,13.36
2019-05-11T07:38:18.594Z,13.86
2019-05-11T07:40:48.030Z,14.00
2019-05-11T07:43:18.820Z,14.24
2019-05-11T07:45:48.023Z,14.51
2019-05-11T07:48:18.651Z,14.51
2019-05-11T07:50:48.468Z,14.54
2019-05-11T07:53:18.641Z,14.71
2019-05-11T07:55:48.470Z,14.92
2019-05-11T07:58:20.209Z,14.65
2019-05-11T08:00:48.983Z,14.67
2019-05-11T08:03:18.200Z,14.77
2019-05-11T08:05:47.869Z,14.68
2019-05-11T08:08:18.085Z,14.98
2019-05-11T08:10:48.368Z,15.05
2019-05-11T08:13:18.060Z,14.80
2019-05-11T08:15:48.797Z,15.04
2019-05-11T08:18:18.910Z,15.27
2019-05-11T08:20:48.042Z,15.31
2019-05-11T08:23:18.072Z,15.19
2019-05-11T08:25:48.636Z,15.37
2019-05-11T08:28:18.425Z,15.67
2019-05-11T08:30:48.620Z,16.04
2019-05-11T08:33:18.366Z,15.79
2019-05-11T08:35:48.085Z,15.76
2019-05-11T08:38:18.316Z,16.09
2019-05-11T08:40:48.498Z,16.16
2019-05-11T08:43:18.122Z,16.49
2019-05-11T08:45:48.534Z,16.33
2019-05-11T08:48:18.728Z,16.55
2019-05-11T08:50:48.857Z,16.74
2019-05-11T08:53:18.305Z,16.59
2019-05-11T08:55:48.537Z,16.19
2019-05-11T08:58:19.394Z,16.93
2019-05-11T09:00:49.020Z,17.09
2019-05-11T09:03:18.052Z,16.34
2019-05-11T09:05:48.535Z,16.87
2019-05-11T09:08:24.606Z,17.08
2019-05-11T09:11:03.530Z,16.91
2019-05-11T09:13:39.540Z,16.79
2019-05-11T09:16:09.733Z,16.34
2019-05-11T09:18:38.712Z,15.86
2019-05-11T09:21:08.350Z,15.60
2019-05-11T09:23:40.684Z,15.20
2019-05-11T09:26:08.946Z,14.68
2019-05-11T09:28:38.590Z,14.61
2019-05-11T09:31:08.503Z,15.41
2019-05-11T09:33:38.764Z,15.81
2019-05-11T09:36:08.533Z,16.21
2019-05-11T09:38:54.939Z,16.48
2019-05-11T09:41:28.905Z,16.84
2019-05-11T09:43:58.682Z,16.86
2019-05-11T09:46:28.185Z,16.71
2019-05-11T09:48:59.001Z,16.95
2019-05-11T09:51:28.786Z,16.86
2019-05-11T09:53:58.759Z,17.42
2019-05-11T09:56:28.771Z,16.35
2019-05-11T09:58:58.317Z,16.33
2019-05-11T10:01:29.467Z,16.81
2019-05-11T10:03:58.507Z,16.25
2019-05-11T10:06:28.189Z,16.04
2019-05-11T10:08:58.015Z,16.00
2019-05-11T10:11:28.251Z,16.55
2019-05-11T10:13:57.936Z,16.23
2019-05-11T10:16:28.055Z,15.57
2019-05-11T10:18:59.163Z,15.68
2019-05-11T10:21:28.038Z,15.80
2019-05-11T10:23:58.113Z,15.47
2019-05-11T10:26:27.879Z,15.32
2019-05-11T10:28:58.510Z,16.64
2019-05-11T10:31:29.119Z,17.15
2019-05-11T10:33:58.183Z,16.39
2019-05-11T10:36:28.168Z,16.50
2019-05-11T10:38:58.817Z,17.41
2019-05-11T10:41:28.480Z,17.10
2019-05-11T10:43:58.266Z,16.62
2019-05-11T10:46:28.756Z,16.36
2019-05-11T10:48:58.692Z,16.89
2019-05-11T10:51:28.901Z,17.54
2019-05-11T10:53:58.003Z,17.49
2019-05-11T10:56:28.412Z,16.85
2019-05-11T10:58:58.708Z,17.03
2019-05-11T11:01:28.719Z,16.58
2019-05-11T11:03:58.674Z,16.20
2019-05-11T11:06:28.326Z,16.61
2019-05-11T11:08:58.029Z,17.22
2019-05-11T11:11:27.829Z,17.24
2019-05-11T11:13:58.458Z,16.57
2019-05-11T11:16:36.893Z,16.04
2019-05-11T11:18:58.914Z,17.44
2019-05-11T11:21:28.065Z,16.89
2019-05-11T11:23:58.716Z,16.89
2019-05-11T11:26:28.493Z,16.40
2019-05-11T11:28:58.273Z,16.66
2019-05-11T11:31:28.810Z,16.58
2019-05-11T11:33:58.485Z,16.57
2019-05-11T11:36:28.499Z,16.35
2019-05-11T11:38:58.523Z,16.47
2019-05-11T11:41:29.909Z,17.28
2019-05-11T11:43:58.665Z,17.40
2019-05-11T11:46:27.925Z,16.80
2019-05-11T11:48:58.099Z,16.18
2019-05-11T11:51:28.656Z,16.12
2019-05-11T11:53:58.400Z,16.85
2019-05-11T11:56:28.441Z,17.19
2019-05-11T11:58:57.926Z,17.18
2019-05-11T12:01:28.125Z,16.89
2019-05-11T12:03:58.113Z,17.54
2019-05-11T12:06:27.970Z,18.07
2019-05-11T12:08:58.535Z,18.30
2019-05-11T12:11:28.106Z,18.70
2019-05-11T12:13:57.988Z,18.17
2019-05-11T12:16:28.127Z,17.46
2019-05-11T12:18:57.900Z,17.65
2019-05-11T12:21:27.729Z,18.21
2019-05-11T12:23:58.512Z,18.91
2019-05-11T12:26:28.182Z,18.51
2019-05-11T12:28:57.850Z,18.43
2019-05-11T12:31:30.658Z,18.79
2019-05-11T12:33:58.636Z,18.73
2019-05-11T12:36:28.180Z,18.99
2019-05-11T12:39:03.370Z,19.61
2019-05-11T12:41:32.246Z,19.50
2019-05-11T12:44:02.357Z,19.10
2019-05-11T12:46:31.465Z,17.56
2019-05-11T12:49:00.388Z,17.08
2019-05-11T12:51:30.081Z,16.99
2019-05-11T12:54:16.158Z,18.30
2019-05-11T12:57:02.277Z,18.68
2019-05-11T12:59:48.771Z,19.34
2019-05-11T13:02:38.579Z,18.93
2019-05-11T13:05:25.043Z,18.42
2019-05-11T13:08:15.544Z,19.24
2019-05-11T13:11:01.199Z,19.36
2019-05-11T13:13:45.396Z,19.51
2019-05-11T13:16:30.642Z,18.70
2019-05-11T13:19:17.772Z,18.77
2019-05-11T13:22:05.066Z,18.49
2019-05-11T13:24:49.038Z,17.05
2019-05-11T13:27:38.676Z,17.45
2019-05-11T13:30:09.877Z,18.39
2019-05-11T13:32:39.395Z,17.73
2019-05-11T13:35:09.260Z,18.07
2019-05-11T13:37:38.852Z,18.71
2019-05-11T13:40:08.583Z,19.19
2019-05-11T13:42:38.605Z,19.61
2019-05-11T13:45:08.794Z,19.17
2019-05-11T13:47:52.478Z,19.21
2019-05-11T13:50:13.930Z,19.39
2019-05-11T13:52:42.845Z,18.92
2019-05-11T13:55:11.686Z,18.97
2019-05-11T13:57:41.908Z,19.05
2019-05-11T14:00:12.641Z,19.44
2019-05-11T14:02:41.699Z,19.69
2019-05-11T14:05:14.453Z,18.89
2019-05-11T14:07:43.255Z,17.82
2019-05-11T14:10:13.165Z,17.82
2019-05-11T14:12:42.195Z,17.99
2019-05-11T14:15:11.199Z,18.08
2019-05-11T14:17:40.245Z,17.92
2019-05-11T14:20:09.419Z,17.38
2019-05-11T14:22:40.022Z,17.45
2019-05-11T14:25:09.179Z,17.70
2019-05-11T14:27:39.087Z,17.85
2019-05-11T14:30:10.638Z,17.72
2019-05-11T14:32:39.612Z,17.97
2019-05-11T14:35:12.095Z,18.30
2019-05-11T14:37:39.861Z,18.03
2019-05-11T14:40:10.216Z,17.64
2019-05-11T14:42:39.060Z,17.51
2019-05-11T14:45:08.706Z,17.43
2019-05-11T14:47:38.771Z,17.56
2019-05-11T14:50:08.775Z,17.37
2019-05-11T14:52:38.981Z,17.80
2019-05-11T14:55:08.497Z,18.05
2019-05-11T14:57:39.611Z,18.15
2019-05-11T15:00:09.605Z,18.07
2019-05-11T15:02:49.313Z,17.54
2019-05-11T15:05:19.987Z,17.54
2019-05-11T15:07:52.061Z,17.88
2019-05-11T15:10:20.210Z,16.96
2019-05-11T15:12:49.122Z,16.84
2019-05-11T15:15:19.018Z,17.14
2019-05-11T15:17:49.154Z,17.48
2019-05-11T15:20:18.944Z,17.35
2019-05-11T15:22:48.926Z,16.84
2019-05-11T15:25:19.580Z,16.72
2019-05-11T15:27:49.077Z,16.67
2019-05-11T15:30:20.088Z,16.60
2019-05-11T15:32:48.996Z,16.11
2019-05-11T15:35:18.745Z,16.23
2019-05-11T15:37:48.876Z,16.06
2019-05-11T15:40:19.143Z,15.59
2019-05-11T15:42:48.603Z,15.28
2019-05-11T15:45:19.911Z,15.48
2019-05-11T15:47:49.093Z,15.45
2019-05-11T15:50:20.272Z,15.45
2019-05-11T15:52:49.302Z,15.24
2019-05-11T15:55:20.064Z,15.00
2019-05-11T15:57:49.252Z,14.96
2019-05-11T16:00:19.699Z,14.87
2019-05-11T16:02:49.226Z,15.02
2019-05-11T16:05:19.435Z,15.16
2019-05-11T16:07:50.586Z,14.81
2019-05-11T16:10:30.163Z,14.61
2019-05-11T16:13:00.098Z,14.50
2019-05-11T16:15:29.338Z,14.48
2019-05-11T16:17:58.167Z,14.26
2019-05-11T16:20:28.514Z,14.05
2019-05-11T16:22:59.496Z,14.03
2019-05-11T16:25:28.528Z,13.99
2019-05-11T16:27:57.383Z,13.85
2019-05-11T16:30:28.768Z,13.93
2019-05-11T16:32:58.105Z,13.87
2019-05-11T16:35:28.150Z,13.76
2019-05-11T16:37:59.266Z,13.84
2019-05-11T16:40:29.567Z,13.75
2019-05-11T16:42:58.844Z,13.85
2019-05-11T16:45:28.306Z,13.95
2019-05-11T16:47:58.875Z,13.83
2019-05-11T16:50:28.337Z,13.83
2019-05-11T16:52:58.516Z,13.76
2019-05-11T16:55:28.090Z,13.58
2019-05-11T16:57:58.829Z,13.43
2019-05-11T17:00:27.488Z,13.25
2019-05-11T17:02:57.674Z,13.32
2019-05-11T17:05:30.529Z,13.29
2019-05-11T17:07:58.813Z,13.42
2019-05-11T17:10:28.522Z,13.41
2019-05-11T17:12:59.085Z,13.54
2019-05-11T17:15:28.857Z,13.32
2019-05-11T17:17:58.761Z,13.31
2019-05-11T17:20:28.012Z,13.26
2019-05-11T17:22:56.825Z,13.05
2019-05-11T17:25:25.601Z,12.98
2019-05-11T17:27:54.371Z,12.97
2019-05-11T17:30:23.154Z,12.90
2019-05-11T17:32:53.310Z,12.82
2019-05-11T17:35:22.114Z,12.62
2019-05-11T17:37:51.113Z,12.49
2019-05-11T17:40:23.324Z,12.39
2019-05-11T17:42:53.628Z,12.30
2019-05-11T17:45:21.167Z,12.18
2019-05-11T17:47:50.273Z,12.19
2019-05-11T17:50:19.434Z,12.20
2019-05-11T17:52:48.343Z,12.15
2019-05-11T17:55:18.544Z,12.17
2019-05-11T17:57:49.511Z,12.13
2019-05-11T18:00:20.026Z,12.06
2019-05-11T18:02:49.222Z,11.97
2019-05-11T18:05:18.220Z,11.83
2019-05-11T18:07:47.132Z,11.86
2019-05-11T18:10:18.280Z,11.77
2019-05-11T18:12:48.524Z,11.75
2019-05-11T18:15:18.549Z,11.75
2019-05-11T18:17:48.611Z,11.57
2019-05-11T18:20:21.428Z,11.60
2019-05-11T18:22:49.276Z,11.48
2019-05-11T18:25:18.687Z,10.87
2019-05-11T18:27:48.405Z,11.08
2019-05-11T18:30:17.249Z,10.97
2019-05-11T18:32:48.625Z,10.83
2019-05-11T18:35:19.114Z,10.77
2019-05-11T18:37:47.840Z,10.80
2019-05-11T18:40:18.745Z,10.84
2019-05-11T18:42:48.754Z,10.89
2019-05-11T18:45:19.069Z,10.85
2019-05-11T18:47:49.250Z,11.00
